sensor_id;sensor_type;location;lat;lon;timestamp;P1;durP1;ratioP1;P2;durP2;ratioP2
27800;SDS011;15181;49.112;11.930;2022-08-21T00:00:51;45.15;;;14.60;;
27800;SDS011;15181;49.112;11.930;2022-08-21T00:03:18;116.70;;;22.40;;
27800;SDS011;15181;49.112;11.930;2022-08-21T00:05:47;30.25;;;14.05;;
27800;SDS011;15181;49.112;11.930;2022-08-21T00:08:17;25.35;;;13.77;;
27800;SDS011;15181;49.112;11.930;2022-08-21T00:10:44;72.80;;;16.05;;
27800;SDS011;15181;49.112;11.930;2022-08-21T00:13:12;21.23;;;11.18;;
27800;SDS011;15181;49.112;11.930;2022-08-21T00:15:41;12.75;;;11.55;;
27800;SDS011;15181;49.112;11.930;2022-08-21T00:18:08;11.75;;;10.85;;
27800;SDS011;15181;49.112;11.930;2022-08-21T00:20:37;17.13;;;11.65;;
27800;SDS011;15181;49.112;11.930;2022-08-21T00:23:05;42.10;;;15.07;;
27800;SDS011;15181;49.112;11.930;2022-08-21T00:25:34;12.32;;;11.23;;
27800;SDS011;15181;49.112;11.930;2022-08-21T00:28:01;10.93;;;10.02;;
27800;SDS011;15181;49.112;11.930;2022-08-21T00:30:29;11.77;;;10.70;;
27800;SDS011;15181;49.112;11.930;2022-08-21T00:32:57;12.70;;;11.70;;
27800;SDS011;15181;49.112;11.930;2022-08-21T00:35:26;11.88;;;10.95;;
27800;SDS011;15181;49.112;11.930;2022-08-21T00:37:54;11.82;;;10.82;;
27800;SDS011;15181;49.112;11.930;2022-08-21T00:40:23;11.70;;;10.70;;
27800;SDS011;15181;49.112;11.930;2022-08-21T00:42:52;11.88;;;10.88;;
27800;SDS011;15181;49.112;11.930;2022-08-21T00:45:20;35.97;;;11.63;;
27800;SDS011;15181;49.112;11.930;2022-08-21T00:47:48;11.30;;;10.38;;
27800;SDS011;15181;49.112;11.930;2022-08-21T00:50:16;9.93;;;9.18;;
27800;SDS011;15181;49.112;11.930;2022-08-21T00:52:44;11.15;;;10.25;;
27800;SDS011;15181;49.112;11.930;2022-08-21T00:55:13;16.83;;;11.88;;
27800;SDS011;15181;49.112;11.930;2022-08-21T00:57:42;13.68;;;11.85;;
27800;SDS011;15181;49.112;11.930;2022-08-21T01:00:20;11.50;;;10.55;;
27800;SDS011;15181;49.112;11.930;2022-08-21T01:02:49;26.08;;;12.13;;
27800;SDS011;15181;49.112;11.930;2022-08-21T01:05:17;51.83;;;13.80;;
27800;SDS011;15181;49.112;11.930;2022-08-21T01:07:44;96.00;;;17.17;;
27800;SDS011;15181;49.112;11.930;2022-08-21T01:10:11;12.18;;;10.43;;
27800;SDS011;15181;49.112;11.930;2022-08-21T01:12:40;18.73;;;11.70;;
27800;SDS011;15181;49.112;11.930;2022-08-21T01:15:08;110.20;;;17.48;;
27800;SDS011;15181;49.112;11.930;2022-08-21T01:17:37;16.83;;;9.98;;
27800;SDS011;15181;49.112;11.930;2022-08-21T01:20:06;42.40;;;11.77;;
27800;SDS011;15181;49.112;11.930;2022-08-21T01:22:37;141.88;;;20.50;;
27800;SDS011;15181;49.112;11.930;2022-08-21T01:25:06;30.85;;;10.88;;
27800;SDS011;15181;49.112;11.930;2022-08-21T01:27:36;85.03;;;13.38;;
27800;SDS011;15181;49.112;11.930;2022-08-21T01:30:04;61.35;;;13.82;;
27800;SDS011;15181;49.112;11.930;2022-08-21T01:32:36;77.95;;;14.05;;
27800;SDS011;15181;49.112;11.930;2022-08-21T01:35:04;106.50;;;16.00;;
27800;SDS011;15181;49.112;11.930;2022-08-21T01:37:32;10.73;;;9.93;;
27800;SDS011;15181;49.112;11.930;2022-08-21T01:40:00;10.48;;;9.68;;
27800;SDS011;15181;49.112;11.930;2022-08-21T01:42:29;10.25;;;9.45;;
27800;SDS011;15181;49.112;11.930;2022-08-21T01:44:56;9.70;;;9.00;;
27800;SDS011;15181;49.112;11.930;2022-08-21T01:47:23;9.50;;;8.80;;
27800;SDS011;15181;49.112;11.930;2022-08-21T01:49:50;9.50;;;8.73;;
27800;SDS011;15181;49.112;11.930;2022-08-21T01:52:18;10.02;;;9.20;;
27800;SDS011;15181;49.112;11.930;2022-08-21T01:54:46;10.80;;;9.93;;
27800;SDS011;15181;49.112;11.930;2022-08-21T01:57:14;10.65;;;9.82;;
27800;SDS011;15181;49.112;11.930;2022-08-21T01:59:42;10.93;;;10.02;;
27800;SDS011;15181;49.112;11.930;2022-08-21T02:02:09;19.35;;;10.82;;
27800;SDS011;15181;49.112;11.930;2022-08-21T02:04:36;11.50;;;10.40;;
27800;SDS011;15181;49.112;11.930;2022-08-21T02:07:04;11.38;;;10.38;;
27800;SDS011;15181;49.112;11.930;2022-08-21T02:09:31;11.95;;;10.88;;
27800;SDS011;15181;49.112;11.930;2022-08-21T02:11:59;11.95;;;10.57;;
27800;SDS011;15181;49.112;11.930;2022-08-21T02:14:27;10.57;;;9.70;;
27800;SDS011;15181;49.112;11.930;2022-08-21T02:16:55;12.23;;;10.13;;
27800;SDS011;15181;49.112;11.930;2022-08-21T02:19:22;11.07;;;10.02;;
27800;SDS011;15181;49.112;11.930;2022-08-21T02:21:49;18.70;;;10.98;;
27800;SDS011;15181;49.112;11.930;2022-08-21T02:24:16;18.40;;;10.38;;
27800;SDS011;15181;49.112;11.930;2022-08-21T02:26:43;11.05;;;9.88;;
27800;SDS011;15181;49.112;11.930;2022-08-21T02:29:11;10.23;;;9.32;;
27800;SDS011;15181;49.112;11.930;2022-08-21T02:31:40;16.65;;;10.52;;
27800;SDS011;15181;49.112;11.930;2022-08-21T02:34:07;181.43;;;18.95;;
27800;SDS011;15181;49.112;11.930;2022-08-21T02:36:34;18.13;;;9.88;;
27800;SDS011;15181;49.112;11.930;2022-08-21T02:39:02;9.88;;;9.07;;
27800;SDS011;15181;49.112;11.930;2022-08-21T02:41:29;10.32;;;9.52;;
27800;SDS011;15181;49.112;11.930;2022-08-21T02:43:58;10.45;;;9.65;;
27800;SDS011;15181;49.112;11.930;2022-08-21T02:46:25;10.60;;;9.70;;
27800;SDS011;15181;49.112;11.930;2022-08-21T02:48:53;94.18;;;16.92;;
27800;SDS011;15181;49.112;11.930;2022-08-21T02:51:20;26.92;;;10.65;;
27800;SDS011;15181;49.112;11.930;2022-08-21T02:53:50;10.43;;;9.52;;
27800;SDS011;15181;49.112;11.930;2022-08-21T02:56:19;11.05;;;10.25;;
27800;SDS011;15181;49.112;11.930;2022-08-21T02:58:48;11.23;;;9.32;;
27800;SDS011;15181;49.112;11.930;2022-08-21T03:01:17;9.82;;;9.13;;
27800;SDS011;15181;49.112;11.930;2022-08-21T03:03:45;10.15;;;9.32;;
27800;SDS011;15181;49.112;11.930;2022-08-21T03:06:16;9.43;;;8.70;;
27800;SDS011;15181;49.112;11.930;2022-08-21T03:08:45;9.73;;;8.82;;
27800;SDS011;15181;49.112;11.930;2022-08-21T03:11:12;10.15;;;9.30;;
27800;SDS011;15181;49.112;11.930;2022-08-21T03:13:40;10.60;;;9.80;;
27800;SDS011;15181;49.112;11.930;2022-08-21T03:16:07;9.77;;;9.02;;
27800;SDS011;15181;49.112;11.930;2022-08-21T03:18:34;9.07;;;8.38;;
27800;SDS011;15181;49.112;11.930;2022-08-21T03:21:02;10.82;;;9.93;;
27800;SDS011;15181;49.112;11.930;2022-08-21T03:23:32;10.32;;;9.48;;
27800;SDS011;15181;49.112;11.930;2022-08-21T03:26:00;10.65;;;9.75;;
27800;SDS011;15181;49.112;11.930;2022-08-21T03:28:27;11.30;;;10.10;;
27800;SDS011;15181;49.112;11.930;2022-08-21T03:30:54;10.82;;;9.93;;
27800;SDS011;15181;49.112;11.930;2022-08-21T03:33:21;8.90;;;8.15;;
27800;SDS011;15181;49.112;11.930;2022-08-21T03:35:52;8.35;;;7.75;;
27800;SDS011;15181;49.112;11.930;2022-08-21T03:38:26;8.10;;;7.45;;
27800;SDS011;15181;49.112;11.930;2022-08-21T03:40:55;7.82;;;7.22;;
27800;SDS011;15181;49.112;11.930;2022-08-21T03:43:24;7.80;;;7.10;;
27800;SDS011;15181;49.112;11.930;2022-08-21T03:45:51;7.72;;;7.13;;
27800;SDS011;15181;49.112;11.930;2022-08-21T03:48:18;7.18;;;6.68;;
27800;SDS011;15181;49.112;11.930;2022-08-21T03:50:46;7.57;;;6.97;;
27800;SDS011;15181;49.112;11.930;2022-08-21T03:53:14;7.22;;;6.72;;
27800;SDS011;15181;49.112;11.930;2022-08-21T03:55:42;7.97;;;7.35;;
27800;SDS011;15181;49.112;11.930;2022-08-21T03:58:10;8.13;;;7.43;;
27800;SDS011;15181;49.112;11.930;2022-08-21T04:00:37;8.07;;;7.47;;
27800;SDS011;15181;49.112;11.930;2022-08-21T04:03:05;8.35;;;7.75;;
27800;SDS011;15181;49.112;11.930;2022-08-21T04:05:33;7.68;;;7.07;;
27800;SDS011;15181;49.112;11.930;2022-08-21T04:08:04;9.48;;;7.22;;
27800;SDS011;15181;49.112;11.930;2022-08-21T04:10:32;7.93;;;7.18;;
27800;SDS011;15181;49.112;11.930;2022-08-21T04:13:03;9.25;;;7.32;;
27800;SDS011;15181;49.112;11.930;2022-08-21T04:15:33;9.77;;;7.57;;
27800;SDS011;15181;49.112;11.930;2022-08-21T04:18:01;8.55;;;7.82;;
27800;SDS011;15181;49.112;11.930;2022-08-21T04:20:29;8.73;;;7.90;;
27800;SDS011;15181;49.112;11.930;2022-08-21T04:22:56;8.05;;;7.45;;
27800;SDS011;15181;49.112;11.930;2022-08-21T04:25:23;8.30;;;7.60;;
27800;SDS011;15181;49.112;11.930;2022-08-21T04:27:53;7.78;;;7.18;;
27800;SDS011;15181;49.112;11.930;2022-08-21T04:30:20;8.50;;;7.70;;
27800;SDS011;15181;49.112;11.930;2022-08-21T04:32:49;9.35;;;8.50;;
27800;SDS011;15181;49.112;11.930;2022-08-21T04:35:19;9.80;;;8.90;;
27800;SDS011;15181;49.112;11.930;2022-08-21T04:37:48;9.52;;;8.63;;
27800;SDS011;15181;49.112;11.930;2022-08-21T04:40:16;9.68;;;8.82;;
27800;SDS011;15181;49.112;11.930;2022-08-21T04:42:45;10.07;;;9.27;;
27800;SDS011;15181;49.112;11.930;2022-08-21T04:45:18;10.88;;;9.75;;
27800;SDS011;15181;49.112;11.930;2022-08-21T04:47:50;11.10;;;9.25;;
27800;SDS011;15181;49.112;11.930;2022-08-21T04:50:18;18.98;;;9.70;;
27800;SDS011;15181;49.112;11.930;2022-08-21T04:52:50;9.30;;;8.50;;
27800;SDS011;15181;49.112;11.930;2022-08-21T04:55:17;10.63;;;9.60;;
27800;SDS011;15181;49.112;11.930;2022-08-21T04:57:46;33.17;;;10.65;;
27800;SDS011;15181;49.112;11.930;2022-08-21T05:00:15;10.30;;;9.50;;
27800;SDS011;15181;49.112;11.930;2022-08-21T05:02:43;9.10;;;8.38;;
27800;SDS011;15181;49.112;11.930;2022-08-21T05:05:13;10.45;;;9.43;;
27800;SDS011;15181;49.112;11.930;2022-08-21T05:07:41;20.65;;;10.20;;
27800;SDS011;15181;49.112;11.930;2022-08-21T05:10:10;10.25;;;9.35;;
27800;SDS011;15181;49.112;11.930;2022-08-21T05:12:39;22.38;;;11.13;;
27800;SDS011;15181;49.112;11.930;2022-08-21T05:15:08;22.83;;;11.15;;
27800;SDS011;15181;49.112;11.930;2022-08-21T05:17:38;45.33;;;11.00;;
27800;SDS011;15181;49.112;11.930;2022-08-21T05:20:06;11.32;;;9.30;;
27800;SDS011;15181;49.112;11.930;2022-08-21T05:22:35;35.35;;;10.85;;
27800;SDS011;15181;49.112;11.930;2022-08-21T05:25:03;11.73;;;10.15;;
27800;SDS011;15181;49.112;11.930;2022-08-21T05:27:30;18.20;;;9.93;;
27800;SDS011;15181;49.112;11.930;2022-08-21T05:29:57;33.63;;;10.25;;
27800;SDS011;15181;49.112;11.930;2022-08-21T05:32:24;62.90;;;12.30;;
27800;SDS011;15181;49.112;11.930;2022-08-21T05:34:52;52.78;;;12.23;;
27800;SDS011;15181;49.112;11.930;2022-08-21T05:37:21;32.03;;;10.52;;
27800;SDS011;15181;49.112;11.930;2022-08-21T05:39:51;25.92;;;10.40;;
27800;SDS011;15181;49.112;11.930;2022-08-21T05:42:19;10.65;;;9.65;;
27800;SDS011;15181;49.112;11.930;2022-08-21T05:44:46;15.30;;;10.90;;
27800;SDS011;15181;49.112;11.930;2022-08-21T05:47:13;11.13;;;10.13;;
27800;SDS011;15181;49.112;11.930;2022-08-21T05:49:40;11.90;;;10.90;;
27800;SDS011;15181;49.112;11.930;2022-08-21T05:52:07;18.15;;;11.32;;
27800;SDS011;15181;49.112;11.930;2022-08-21T05:54:36;11.75;;;10.68;;
27800;SDS011;15181;49.112;11.930;2022-08-21T05:57:06;11.50;;;10.60;;
27800;SDS011;15181;49.112;11.930;2022-08-21T05:59:33;11.20;;;10.30;;
27800;SDS011;15181;49.112;11.930;2022-08-21T06:02:01;10.60;;;9.80;;
27800;SDS011;15181;49.112;11.930;2022-08-21T06:04:28;10.93;;;10.02;;
27800;SDS011;15181;49.112;11.930;2022-08-21T06:06:56;11.07;;;10.05;;
27800;SDS011;15181;49.112;11.930;2022-08-21T06:09:23;23.63;;;11.23;;
27800;SDS011;15181;49.112;11.930;2022-08-21T06:11:49;10.85;;;10.00;;
27800;SDS011;15181;49.112;11.930;2022-08-21T06:14:19;16.20;;;11.20;;
27800;SDS011;15181;49.112;11.930;2022-08-21T06:16:46;11.27;;;10.38;;
27800;SDS011;15181;49.112;11.930;2022-08-21T06:19:13;11.02;;;10.13;;
27800;SDS011;15181;49.112;11.930;2022-08-21T06:21:40;84.07;;;14.48;;
27800;SDS011;15181;49.112;11.930;2022-08-21T06:24:07;36.88;;;12.25;;
27800;SDS011;15181;49.112;11.930;2022-08-21T06:26:34;12.35;;;11.15;;
27800;SDS011;15181;49.112;11.930;2022-08-21T06:29:02;12.38;;;11.25;;
27800;SDS011;15181;49.112;11.930;2022-08-21T06:31:30;11.07;;;9.98;;
27800;SDS011;15181;49.112;11.930;2022-08-21T06:33:57;10.85;;;9.93;;
27800;SDS011;15181;49.112;11.930;2022-08-21T06:36:24;11.55;;;10.65;;
27800;SDS011;15181;49.112;11.930;2022-08-21T06:38:51;12.63;;;11.38;;
27800;SDS011;15181;49.112;11.930;2022-08-21T06:41:19;19.42;;;11.75;;
27800;SDS011;15181;49.112;11.930;2022-08-21T06:43:46;23.17;;;12.43;;
27800;SDS011;15181;49.112;11.930;2022-08-21T06:46:14;21.55;;;14.75;;
27800;SDS011;15181;49.112;11.930;2022-08-21T06:48:42;22.85;;;12.32;;
27800;SDS011;15181;49.112;11.930;2022-08-21T06:51:09;33.63;;;12.73;;
27800;SDS011;15181;49.112;11.930;2022-08-21T06:53:38;12.15;;;11.15;;
27800;SDS011;15181;49.112;11.930;2022-08-21T06:56:05;12.82;;;11.52;;
27800;SDS011;15181;49.112;11.930;2022-08-21T06:58:32;14.70;;;12.77;;
27800;SDS011;15181;49.112;11.930;2022-08-21T07:00:59;13.75;;;12.38;;
27800;SDS011;15181;49.112;11.930;2022-08-21T07:03:27;12.85;;;11.55;;
27800;SDS011;15181;49.112;11.930;2022-08-21T07:05:56;13.43;;;12.32;;
27800;SDS011;15181;49.112;11.930;2022-08-21T07:08:23;11.77;;;10.77;;
27800;SDS011;15181;49.112;11.930;2022-08-21T07:10:51;15.27;;;11.88;;
27800;SDS011;15181;49.112;11.930;2022-08-21T07:13:20;11.27;;;10.27;;
27800;SDS011;15181;49.112;11.930;2022-08-21T07:15:47;11.70;;;10.73;;
27800;SDS011;15181;49.112;11.930;2022-08-21T07:18:14;11.65;;;10.73;;
27800;SDS011;15181;49.112;11.930;2022-08-21T07:20:41;11.38;;;10.48;;
27800;SDS011;15181;49.112;11.930;2022-08-21T07:23:10;11.82;;;10.82;;
27800;SDS011;15181;49.112;11.930;2022-08-21T07:25:42;12.13;;;11.02;;
27800;SDS011;15181;49.112;11.930;2022-08-21T07:28:09;12.32;;;11.23;;
27800;SDS011;15181;49.112;11.930;2022-08-21T07:30:36;12.75;;;11.55;;
27800;SDS011;15181;49.112;11.930;2022-08-21T07:33:03;12.60;;;11.48;;
27800;SDS011;15181;49.112;11.930;2022-08-21T07:35:30;11.65;;;10.65;;
27800;SDS011;15181;49.112;11.930;2022-08-21T07:37:58;12.63;;;11.52;;
27800;SDS011;15181;49.112;11.930;2022-08-21T07:40:26;12.70;;;11.57;;
27800;SDS011;15181;49.112;11.930;2022-08-21T07:42:53;13.05;;;11.95;;
27800;SDS011;15181;49.112;11.930;2022-08-21T07:45:21;12.50;;;11.30;;
27800;SDS011;15181;49.112;11.930;2022-08-21T07:47:49;13.52;;;12.32;;
27800;SDS011;15181;49.112;11.930;2022-08-21T07:50:18;12.48;;;11.45;;
27800;SDS011;15181;49.112;11.930;2022-08-21T07:52:45;12.82;;;11.75;;
27800;SDS011;15181;49.112;11.930;2022-08-21T07:55:14;13.35;;;12.15;;
27800;SDS011;15181;49.112;11.930;2022-08-21T07:57:44;12.15;;;11.10;;
27800;SDS011;15181;49.112;11.930;2022-08-21T08:00:13;11.98;;;10.90;;
27800;SDS011;15181;49.112;11.930;2022-08-21T08:02:43;11.98;;;10.95;;
27800;SDS011;15181;49.112;11.930;2022-08-21T08:05:14;11.63;;;10.52;;
27800;SDS011;15181;49.112;11.930;2022-08-21T08:07:42;12.50;;;11.43;;
27800;SDS011;15181;49.112;11.930;2022-08-21T08:10:10;13.07;;;11.77;;
27800;SDS011;15181;49.112;11.930;2022-08-21T08:12:38;12.55;;;11.45;;
27800;SDS011;15181;49.112;11.930;2022-08-21T08:15:11;12.70;;;11.50;;
27800;SDS011;15181;49.112;11.930;2022-08-21T08:17:40;13.45;;;12.23;;
27800;SDS011;15181;49.112;11.930;2022-08-21T08:20:08;12.73;;;11.52;;
27800;SDS011;15181;49.112;11.930;2022-08-21T08:22:38;11.63;;;10.63;;
27800;SDS011;15181;49.112;11.930;2022-08-21T08:25:07;11.95;;;10.85;;
27800;SDS011;15181;49.112;11.930;2022-08-21T08:27:36;12.18;;;11.07;;
27800;SDS011;15181;49.112;11.930;2022-08-21T08:30:04;13.48;;;12.27;;
27800;SDS011;15181;49.112;11.930;2022-08-21T08:32:34;13.10;;;11.90;;
27800;SDS011;15181;49.112;11.930;2022-08-21T08:35:02;13.20;;;11.98;;
27800;SDS011;15181;49.112;11.930;2022-08-21T08:37:29;13.48;;;12.20;;
27800;SDS011;15181;49.112;11.930;2022-08-21T08:39:56;13.80;;;12.40;;
27800;SDS011;15181;49.112;11.930;2022-08-21T08:42:24;12.60;;;11.50;;
27800;SDS011;15181;49.112;11.930;2022-08-21T08:44:59;14.32;;;13.02;;
27800;SDS011;15181;49.112;11.930;2022-08-21T08:47:31;12.90;;;11.68;;
27800;SDS011;15181;49.112;11.930;2022-08-21T08:50:03;14.07;;;12.77;;
27800;SDS011;15181;49.112;11.930;2022-08-21T08:52:32;13.75;;;12.45;;
27800;SDS011;15181;49.112;11.930;2022-08-21T08:55:03;13.70;;;12.40;;
27800;SDS011;15181;49.112;11.930;2022-08-21T08:57:32;12.82;;;11.68;;
27800;SDS011;15181;49.112;11.930;2022-08-21T09:00:03;12.60;;;11.40;;
27800;SDS011;15181;49.112;11.930;2022-08-21T09:02:33;14.07;;;12.80;;
27800;SDS011;15181;49.112;11.930;2022-08-21T09:05:01;17.33;;;13.90;;
27800;SDS011;15181;49.112;11.930;2022-08-21T09:07:33;15.10;;;13.68;;
27800;SDS011;15181;49.112;11.930;2022-08-21T09:10:11;37.95;;;34.47;;
27800;SDS011;15181;49.112;11.930;2022-08-21T09:12:45;15.68;;;14.27;;
27800;SDS011;15181;49.112;11.930;2022-08-21T09:15:20;16.48;;;14.98;;
27800;SDS011;15181;49.112;11.930;2022-08-21T09:18:01;16.13;;;14.55;;
27800;SDS011;15181;49.112;11.930;2022-08-21T09:20:52;14.63;;;13.32;;
27800;SDS011;15181;49.112;11.930;2022-08-21T09:23:30;14.73;;;13.27;;
27800;SDS011;15181;49.112;11.930;2022-08-21T09:26:07;15.73;;;14.32;;
27800;SDS011;15181;49.112;11.930;2022-08-21T09:28:38;16.90;;;15.30;;
27800;SDS011;15181;49.112;11.930;2022-08-21T09:31:08;15.85;;;14.38;;
27800;SDS011;15181;49.112;11.930;2022-08-21T09:33:42;16.25;;;14.85;;
27800;SDS011;15181;49.112;11.930;2022-08-21T09:36:10;15.73;;;14.25;;
27800;SDS011;15181;49.112;11.930;2022-08-21T09:38:37;15.43;;;14.02;;
27800;SDS011;15181;49.112;11.930;2022-08-21T09:41:05;15.40;;;14.00;;
27800;SDS011;15181;49.112;11.930;2022-08-21T09:43:36;16.92;;;15.15;;
27800;SDS011;15181;49.112;11.930;2022-08-21T09:46:05;16.48;;;14.98;;
27800;SDS011;15181;49.112;11.930;2022-08-21T09:48:43;17.08;;;15.38;;
27800;SDS011;15181;49.112;11.930;2022-08-21T09:51:14;17.55;;;15.95;;
27800;SDS011;15181;49.112;11.930;2022-08-21T09:53:44;16.35;;;14.65;;
27800;SDS011;15181;49.112;11.930;2022-08-21T09:59:19;16.25;;;14.80;;
27800;SDS011;15181;49.112;11.930;2022-08-21T10:01:51;17.92;;;16.23;;
27800;SDS011;15181;49.112;11.930;2022-08-21T10:04:21;18.42;;;16.73;;
27800;SDS011;15181;49.112;11.930;2022-08-21T10:06:52;20.27;;;18.27;;
27800;SDS011;15181;49.112;11.930;2022-08-21T10:09:19;18.15;;;16.45;;
27800;SDS011;15181;49.112;11.930;2022-08-21T10:11:49;18.90;;;17.20;;
27800;SDS011;15181;49.112;11.930;2022-08-21T10:16:57;18.08;;;16.45;;
27800;SDS011;15181;49.112;11.930;2022-08-21T10:19:32;18.95;;;17.25;;
27800;SDS011;15181;49.112;11.930;2022-08-21T10:22:09;21.45;;;19.48;;
27800;SDS011;15181;49.112;11.930;2022-08-21T10:24:48;19.98;;;18.10;;
27800;SDS011;15181;49.112;11.930;2022-08-21T10:27:27;19.42;;;17.63;;
27800;SDS011;15181;49.112;11.930;2022-08-21T10:30:04;17.70;;;16.02;;
27800;SDS011;15181;49.112;11.930;2022-08-21T10:32:38;20.80;;;18.98;;
27800;SDS011;15181;49.112;11.930;2022-08-21T10:35:25;19.33;;;17.63;;
27800;SDS011;15181;49.112;11.930;2022-08-21T10:38:01;19.60;;;17.50;;
27800;SDS011;15181;49.112;11.930;2022-08-21T10:40:42;19.92;;;18.13;;
27800;SDS011;15181;49.112;11.930;2022-08-21T10:43:19;21.13;;;19.13;;
27800;SDS011;15181;49.112;11.930;2022-08-21T10:45:53;19.60;;;17.88;;
27800;SDS011;15181;49.112;11.930;2022-08-21T10:48:28;18.67;;;17.08;;
27800;SDS011;15181;49.112;11.930;2022-08-21T10:51:04;17.93;;;16.23;;
27800;SDS011;15181;49.112;11.930;2022-08-21T10:56:18;17.80;;;16.30;;
27800;SDS011;15181;49.112;11.930;2022-08-21T10:58:51;17.95;;;16.48;;
27800;SDS011;15181;49.112;11.930;2022-08-21T11:01:32;17.27;;;15.77;;
27800;SDS011;15181;49.112;11.930;2022-08-21T11:04:09;18.15;;;16.65;;
27800;SDS011;15181;49.112;11.930;2022-08-21T11:06:40;18.35;;;16.65;;
27800;SDS011;15181;49.112;11.930;2022-08-21T11:09:14;18.95;;;17.35;;
27800;SDS011;15181;49.112;11.930;2022-08-21T11:11:46;16.73;;;15.23;;
27800;SDS011;15181;49.112;11.930;2022-08-21T11:14:20;17.20;;;15.70;;
27800;SDS011;15181;49.112;11.930;2022-08-21T11:16:56;16.75;;;15.35;;
27800;SDS011;15181;49.112;11.930;2022-08-21T11:19:28;19.27;;;17.67;;
27800;SDS011;15181;49.112;11.930;2022-08-21T11:22:01;19.63;;;17.98;;
27800;SDS011;15181;49.112;11.930;2022-08-21T11:24:37;19.77;;;18.08;;
27800;SDS011;15181;49.112;11.930;2022-08-21T11:27:16;18.83;;;16.92;;
27800;SDS011;15181;49.112;11.930;2022-08-21T11:29:49;17.08;;;15.65;;
27800;SDS011;15181;49.112;11.930;2022-08-21T11:32:31;17.58;;;16.00;;
27800;SDS011;15181;49.112;11.930;2022-08-21T11:35:16;17.63;;;16.10;;
27800;SDS011;15181;49.112;11.930;2022-08-21T11:37:53;17.20;;;15.65;;
27800;SDS011;15181;49.112;11.930;2022-08-21T11:40:44;17.35;;;15.85;;
27800;SDS011;15181;49.112;11.930;2022-08-21T11:43:22;17.60;;;16.00;;
27800;SDS011;15181;49.112;11.930;2022-08-21T11:45:59;15.52;;;14.02;;
27800;SDS011;15181;49.112;11.930;2022-08-21T11:48:42;16.65;;;15.25;;
27800;SDS011;15181;49.112;11.930;2022-08-21T11:51:20;17.15;;;15.68;;
27800;SDS011;15181;49.112;11.930;2022-08-21T11:53:56;17.77;;;16.17;;
27800;SDS011;15181;49.112;11.930;2022-08-21T11:56:31;16.92;;;15.43;;
27800;SDS011;15181;49.112;11.930;2022-08-21T11:59:09;16.90;;;15.40;;
27800;SDS011;15181;49.112;11.930;2022-08-21T12:01:43;16.25;;;14.95;;
27800;SDS011;15181;49.112;11.930;2022-08-21T12:04:16;14.77;;;13.48;;
27800;SDS011;15181;49.112;11.930;2022-08-21T12:06:52;16.60;;;15.10;;
27800;SDS011;15181;49.112;11.930;2022-08-21T12:09:28;15.95;;;14.45;;
27800;SDS011;15181;49.112;11.930;2022-08-21T12:12:03;13.27;;;12.18;;
27800;SDS011;15181;49.112;11.930;2022-08-21T12:14:37;13.75;;;12.65;;
27800;SDS011;15181;49.112;11.930;2022-08-21T12:17:07;14.95;;;13.55;;
27800;SDS011;15181;49.112;11.930;2022-08-21T12:19:43;14.88;;;13.60;;
27800;SDS011;15181;49.112;11.930;2022-08-21T12:22:11;14.23;;;13.02;;
27800;SDS011;15181;49.112;11.930;2022-08-21T12:24:41;13.88;;;12.73;;
27800;SDS011;15181;49.112;11.930;2022-08-21T12:27:20;14.00;;;12.90;;
27800;SDS011;15181;49.112;11.930;2022-08-21T12:29:52;12.88;;;11.77;;
27800;SDS011;15181;49.112;11.930;2022-08-21T12:32:23;12.80;;;11.73;;
27800;SDS011;15181;49.112;11.930;2022-08-21T12:34:55;12.77;;;11.70;;
27800;SDS011;15181;49.112;11.930;2022-08-21T12:37:31;12.60;;;11.50;;
27800;SDS011;15181;49.112;11.930;2022-08-21T12:40:10;13.07;;;11.88;;
27800;SDS011;15181;49.112;11.930;2022-08-21T12:42:43;13.35;;;12.15;;
27800;SDS011;15181;49.112;11.930;2022-08-21T12:45:18;12.23;;;11.23;;
27800;SDS011;15181;49.112;11.930;2022-08-21T12:47:50;11.88;;;10.82;;
27800;SDS011;15181;49.112;11.930;2022-08-21T12:50:35;11.73;;;10.75;;
27800;SDS011;15181;49.112;11.930;2022-08-21T12:53:05;10.82;;;9.93;;
27800;SDS011;15181;49.112;11.930;2022-08-21T12:55:40;12.10;;;11.10;;
27800;SDS011;15181;49.112;11.930;2022-08-21T12:58:17;10.65;;;9.75;;
27800;SDS011;15181;49.112;11.930;2022-08-21T13:00:47;11.00;;;10.10;;
27800;SDS011;15181;49.112;11.930;2022-08-21T13:03:17;9.90;;;9.00;;
27800;SDS011;15181;49.112;11.930;2022-08-21T13:05:45;9.75;;;8.95;;
27800;SDS011;15181;49.112;11.930;2022-08-21T13:08:12;9.68;;;8.77;;
27800;SDS011;15181;49.112;11.930;2022-08-21T13:10:41;9.35;;;8.65;;
27800;SDS011;15181;49.112;11.930;2022-08-21T13:13:10;9.00;;;8.30;;
27800;SDS011;15181;49.112;11.930;2022-08-21T13:15:45;9.40;;;8.50;;
27800;SDS011;15181;49.112;11.930;2022-08-21T13:18:19;9.48;;;8.70;;
27800;SDS011;15181;49.112;11.930;2022-08-21T13:23:19;9.52;;;8.73;;
27800;SDS011;15181;49.112;11.930;2022-08-21T13:25:50;9.73;;;8.93;;
27800;SDS011;15181;49.112;11.930;2022-08-21T13:28:18;9.73;;;8.93;;
27800;SDS011;15181;49.112;11.930;2022-08-21T13:30:48;9.40;;;8.63;;
27800;SDS011;15181;49.112;11.930;2022-08-21T13:33:17;9.73;;;8.93;;
27800;SDS011;15181;49.112;11.930;2022-08-21T13:35:47;9.23;;;8.45;;
27800;SDS011;15181;49.112;11.930;2022-08-21T13:38:17;9.13;;;8.23;;
27800;SDS011;15181;49.112;11.930;2022-08-21T13:40:46;9.45;;;8.65;;
27800;SDS011;15181;49.112;11.930;2022-08-21T13:43:18;9.45;;;8.65;;
27800;SDS011;15181;49.112;11.930;2022-08-21T13:45:50;9.55;;;8.75;;
27800;SDS011;15181;49.112;11.930;2022-08-21T13:48:18;9.60;;;8.80;;
27800;SDS011;15181;49.112;11.930;2022-08-21T13:50:48;9.45;;;8.65;;
27800;SDS011;15181;49.112;11.930;2022-08-21T13:53:20;9.38;;;8.48;;
27800;SDS011;15181;49.112;11.930;2022-08-21T13:55:58;9.75;;;8.80;;
27800;SDS011;15181;49.112;11.930;2022-08-21T13:58:28;8.98;;;8.27;;
27800;SDS011;15181;49.112;11.930;2022-08-21T14:00:58;9.27;;;8.48;;
27800;SDS011;15181;49.112;11.930;2022-08-21T14:03:33;9.10;;;8.40;;
27800;SDS011;15181;49.112;11.930;2022-08-21T14:06:10;9.68;;;8.77;;
27800;SDS011;15181;49.112;11.930;2022-08-21T14:08:38;9.30;;;8.50;;
27800;SDS011;15181;49.112;11.930;2022-08-21T14:11:09;8.70;;;8.00;;
27800;SDS011;15181;49.112;11.930;2022-08-21T14:13:39;9.00;;;8.30;;
27800;SDS011;15181;49.112;11.930;2022-08-21T14:16:14;8.88;;;8.18;;
27800;SDS011;15181;49.112;11.930;2022-08-21T14:18:46;8.82;;;8.13;;
27800;SDS011;15181;49.112;11.930;2022-08-21T14:21:23;8.65;;;7.95;;
27800;SDS011;15181;49.112;11.930;2022-08-21T14:24:05;8.90;;;8.20;;
27800;SDS011;15181;49.112;11.930;2022-08-21T14:26:36;8.20;;;7.50;;
27800;SDS011;15181;49.112;11.930;2022-08-21T14:29:11;8.90;;;8.10;;
27800;SDS011;15181;49.112;11.930;2022-08-21T14:31:43;8.77;;;8.00;;
27800;SDS011;15181;49.112;11.930;2022-08-21T14:34:15;7.93;;;7.22;;
27800;SDS011;15181;49.112;11.930;2022-08-21T14:36:43;8.60;;;7.90;;
27800;SDS011;15181;49.112;11.930;2022-08-21T14:39:10;8.30;;;7.60;;
27800;SDS011;15181;49.112;11.930;2022-08-21T14:41:37;8.57;;;7.78;;
27800;SDS011;15181;49.112;11.930;2022-08-21T14:44:05;8.00;;;7.40;;